sensor_id;sensor_type;location;lat;lon;timestamp;pressure;altitude;pressure_sealevel;temperature;humidity
82512;BME280;72152;65.012;25.464;2024-03-02T00:03:16;102022.90;;;2.84;70.36
82512;BME280;72152;65.012;25.464;2024-03-02T00:06:26;102022.84;;;2.86;70.44
82512;BME280;72152;65.012;25.464;2024-03-02T00:09:24;102020.34;;;2.89;70.44
82512;BME280;72152;65.012;25.464;2024-03-02T00:12:28;102026.96;;;2.89;70.21
82512;BME280;72152;65.012;25.464;2024-03-02T00:15:45;102022.99;;;2.86;70.21
82512;BME280;72152;65.012;25.464;2024-03-02T00:18:50;102033.59;;;2.86;70.23
82512;BME280;72152;65.012;25.464;2024-03-02T00:21:57;102029.33;;;2.88;70.26
82512;BME280;72152;65.012;25.464;2024-03-02T00:25:06;102029.65;;;2.91;70.29
82512;BME280;72152;65.012;25.464;2024-03-02T00:28:16;102045.30;;;2.91;70.15
82512;BME280;72152;65.012;25.464;2024-03-02T00:31:26;102050.98;;;2.90;70.06
82512;BME280;72152;65.012;25.464;2024-03-02T00:34:34;102062.55;;;2.91;70.15
82512;BME280;72152;65.012;25.464;2024-03-02T00:37:41;102059.66;;;2.93;70.13
82512;BME280;72152;65.012;25.464;2024-03-02T00:40:48;102055.77;;;2.95;70.11
82512;BME280;72152;65.012;25.464;2024-03-02T00:44:12;102058.61;;;2.92;70.15
82512;BME280;72152;65.012;25.464;2024-03-02T00:47:19;102059.85;;;2.90;70.25
82512;BME280;72152;65.012;25.464;2024-03-02T00:50:28;102057.38;;;2.89;70.08
82512;BME280;72152;65.012;25.464;2024-03-02T00:53:31;102051.61;;;2.88;70.11
82512;BME280;72152;65.012;25.464;2024-03-02T00:56:34;102049.23;;;2.86;70.16
82512;BME280;72152;65.012;25.464;2024-03-02T00:59:38;102045.77;;;2.82;70.15
82512;BME280;72152;65.012;25.464;2024-03-02T01:02:35;102043.18;;;2.80;70.23
82512;BME280;72152;65.012;25.464;2024-03-02T01:05:42;102041.46;;;2.76;70.23
82512;BME280;72152;65.012;25.464;2024-03-02T01:08:44;102038.59;;;2.74;70.23
82512;BME280;72152;65.012;25.464;2024-03-02T01:11:59;102028.92;;;2.73;70.35
82512;BME280;72152;65.012;25.464;2024-03-02T01:15:18;102024.64;;;2.70;70.39
82512;BME280;72152;65.012;25.464;2024-03-02T01:18:20;102025.48;;;2.70;70.41
82512;BME280;72152;65.012;25.464;2024-03-02T01:21:22;102024.33;;;2.71;70.43
82512;BME280;72152;65.012;25.464;2024-03-02T01:24:25;102023.45;;;2.70;70.51
82512;BME280;72152;65.012;25.464;2024-03-02T01:27:30;102016.95;;;2.69;70.44
82512;BME280;72152;65.012;25.464;2024-03-02T01:30:26;102019.54;;;2.69;70.49
82512;BME280;72152;65.012;25.464;2024-03-02T01:33:32;102013.83;;;2.69;70.54
82512;BME280;72152;65.012;25.464;2024-03-02T01:36:35;102012.08;;;2.69;70.47
82512;BME280;72152;65.012;25.464;2024-03-02T01:39:40;102009.01;;;2.70;70.64
82512;BME280;72152;65.012;25.464;2024-03-02T01:42:42;102009.66;;;2.73;70.59
82512;BME280;72152;65.012;25.464;2024-03-02T01:45:49;102011.39;;;2.73;70.58
82512;BME280;72152;65.012;25.464;2024-03-02T01:48:51;102012.58;;;2.76;70.61
82512;BME280;72152;65.012;25.464;2024-03-02T01:52:00;102016.00;;;2.78;70.47
82512;BME280;72152;65.012;25.464;2024-03-02T01:55:06;102017.64;;;2.79;70.44
82512;BME280;72152;65.012;25.464;2024-03-02T01:58:03;102021.09;;;2.79;70.22
82512;BME280;72152;65.012;25.464;2024-03-02T02:01:12;102016.94;;;2.76;70.24
82512;BME280;72152;65.012;25.464;2024-03-02T02:04:23;102016.77;;;2.72;70.36
82512;BME280;72152;65.012;25.464;2024-03-02T02:07:27;102020.27;;;2.73;70.45
82512;BME280;72152;65.012;25.464;2024-03-02T02:10:35;102017.64;;;2.76;70.34
82512;BME280;72152;65.012;25.464;2024-03-02T02:13:37;102019.20;;;2.76;70.37
82512;BME280;72152;65.012;25.464;2024-03-02T02:16:41;102022.93;;;2.77;70.44
82512;BME280;72152;65.012;25.464;2024-03-02T02:19:47;102031.73;;;2.80;70.41
82512;BME280;72152;65.012;25.464;2024-03-02T02:23:03;102031.02;;;2.80;70.32
82512;BME280;72152;65.012;25.464;2024-03-02T02:26:09;102040.55;;;2.79;70.27
82512;BME280;72152;65.012;25.464;2024-03-02T02:29:13;102040.91;;;2.76;70.26
82512;BME280;72152;65.012;25.464;2024-03-02T02:32:21;102036.65;;;2.78;70.38
82512;BME280;72152;65.012;25.464;2024-03-02T02:35:27;102036.38;;;2.79;70.31
82512;BME280;72152;65.012;25.464;2024-03-02T02:38:32;102040.30;;;2.81;70.44
82512;BME280;72152;65.012;25.464;2024-03-02T02:41:39;102046.41;;;2.82;70.38
82512;BME280;72152;65.012;25.464;2024-03-02T02:44:46;102041.80;;;2.83;70.49
82512;BME280;72152;65.012;25.464;2024-03-02T02:47:46;102041.09;;;2.86;70.47
82512;BME280;72152;65.012;25.464;2024-03-02T02:50:49;102048.75;;;2.90;70.40
82512;BME280;72152;65.012;25.464;2024-03-02T02:53:59;102047.58;;;2.91;70.29
82512;BME280;72152;65.012;25.464;2024-03-02T02:57:04;102046.52;;;2.94;70.35
82512;BME280;72152;65.012;25.464;2024-03-02T03:00:16;102047.89;;;2.94;70.31
82512;BME280;72152;65.012;25.464;2024-03-02T03:03:18;102053.17;;;2.92;70.30
82512;BME280;72152;65.012;25.464;2024-03-02T03:06:25;102051.83;;;2.89;70.25
82512;BME280;72152;65.012;25.464;2024-03-02T03:09:23;102051.20;;;2.90;70.43
82512;BME280;72152;65.012;25.464;2024-03-02T03:12:30;102045.98;;;2.90;70.32
82512;BME280;72152;65.012;25.464;2024-03-02T03:15:35;102047.71;;;2.90;70.38
82512;BME280;72152;65.012;25.464;2024-03-02T03:18:45;102052.23;;;2.90;70.36
82512;BME280;72152;65.012;25.464;2024-03-02T03:21:51;102046.65;;;2.86;70.32
82512;BME280;72152;65.012;25.464;2024-03-02T03:24:59;102047.57;;;2.87;70.41
82512;BME280;72152;65.012;25.464;2024-03-02T03:28:11;102051.30;;;2.89;70.54
82512;BME280;72152;65.012;25.464;2024-03-02T03:31:13;102044.30;;;2.88;70.57
82512;BME280;72152;65.012;25.464;2024-03-02T03:34:20;102039.26;;;2.88;70.52
82512;BME280;72152;65.012;25.464;2024-03-02T03:37:24;102031.17;;;2.86;70.58
82512;BME280;72152;65.012;25.464;2024-03-02T03:40:32;102031.94;;;2.84;70.59
82512;BME280;72152;65.012;25.464;2024-03-02T03:43:34;102036.27;;;2.84;70.66
82512;BME280;72152;65.012;25.464;2024-03-02T03:46:38;102039.95;;;2.84;70.70
82512;BME280;72152;65.012;25.464;2024-03-02T03:49:42;102035.11;;;2.85;70.79
82512;BME280;72152;65.012;25.464;2024-03-02T03:52:47;102032.05;;;2.86;70.79
82512;BME280;72152;65.012;25.464;2024-03-02T03:55:51;102040.28;;;2.88;70.80
82512;BME280;72152;65.012;25.464;2024-03-02T03:58:55;102039.80;;;2.92;70.78
82512;BME280;72152;65.012;25.464;2024-03-02T04:01:54;102038.52;;;2.91;70.73
82512;BME280;72152;65.012;25.464;2024-03-02T04:04:59;102043.13;;;2.89;70.93
82512;BME280;72152;65.012;25.464;2024-03-02T04:08:08;102044.77;;;2.87;70.88
82512;BME280;72152;65.012;25.464;2024-03-02T04:11:11;102048.71;;;2.86;70.87
82512;BME280;72152;65.012;25.464;2024-03-02T04:14:17;102053.26;;;2.87;71.09
82512;BME280;72152;65.012;25.464;2024-03-02T04:17:24;102058.73;;;2.88;71.13
82512;BME280;72152;65.012;25.464;2024-03-02T04:20:30;102058.95;;;2.89;71.13
82512;BME280;72152;65.012;25.464;2024-03-02T04:23:38;102059.69;;;2.90;71.03
82512;BME280;72152;65.012;25.464;2024-03-02T04:26:46;102059.00;;;2.86;71.02
82512;BME280;72152;65.012;25.464;2024-03-02T04:29:47;102059.83;;;2.82;71.13
82512;BME280;72152;65.012;25.464;2024-03-02T04:32:54;102057.83;;;2.84;71.18
82512;BME280;72152;65.012;25.464;2024-03-02T04:36:00;102055.02;;;2.87;71.22
82512;BME280;72152;65.012;25.464;2024-03-02T04:39:09;102057.05;;;2.86;71.20
82512;BME280;72152;65.012;25.464;2024-03-02T04:42:16;102052.58;;;2.83;71.29
82512;BME280;72152;65.012;25.464;2024-03-02T04:45:25;102055.30;;;2.82;71.27
82512;BME280;72152;65.012;25.464;2024-03-02T04:48:31;102057.54;;;2.82;71.42
82512;BME280;72152;65.012;25.464;2024-03-02T04:51:41;102060.34;;;2.82;71.40
82512;BME280;72152;65.012;25.464;2024-03-02T04:54:47;102055.48;;;2.82;71.52
82512;BME280;72152;65.012;25.464;2024-03-02T04:58:07;102050.30;;;2.79;71.49
82512;BME280;72152;65.012;25.464;2024-03-02T05:01:17;102047.50;;;2.75;71.58
82512;BME280;72152;65.012;25.464;2024-03-02T05:04:23;102029.52;;;2.74;71.74
82512;BME280;72152;65.012;25.464;2024-03-02T05:07:28;102025.84;;;2.73;71.63
82512;BME280;72152;65.012;25.464;2024-03-02T05:10:37;102029.14;;;2.70;71.80
82512;BME280;72152;65.012;25.464;2024-03-02T05:13:46;102045.83;;;2.70;71.89
82512;BME280;72152;65.012;25.464;2024-03-02T05:16:47;102053.98;;;2.73;71.99
82512;BME280;72152;65.012;25.464;2024-03-02T05:19:53;102054.73;;;2.74;71.90
82512;BME280;72152;65.012;25.464;2024-03-02T05:23:01;102059.71;;;2.76;71.94
82512;BME280;72152;65.012;25.464;2024-03-02T05:26:08;102065.35;;;2.78;71.91
82512;BME280;72152;65.012;25.464;2024-03-02T05:29:24;102060.90;;;2.79;71.99
82512;BME280;72152;65.012;25.464;2024-03-02T05:32:30;102060.11;;;2.78;71.87
82512;BME280;72152;65.012;25.464;2024-03-02T05:35:40;102057.45;;;2.80;72.07
82512;BME280;72152;65.012;25.464;2024-03-02T05:38:47;102049.40;;;2.82;71.84
82512;BME280;72152;65.012;25.464;2024-03-02T05:41:52;102062.85;;;2.80;71.72
82512;BME280;72152;65.012;25.464;2024-03-02T05:44:54;102075.39;;;2.77;71.80
82512;BME280;72152;65.012;25.464;2024-03-02T05:47:55;102074.34;;;2.77;71.80
82512;BME280;72152;65.012;25.464;2024-03-02T05:51:05;102081.19;;;2.78;71.78
82512;BME280;72152;65.012;25.464;2024-03-02T05:54:11;102081.15;;;2.81;71.84
82512;BME280;72152;65.012;25.464;2024-03-02T05:57:20;102080.10;;;2.81;71.63
82512;BME280;72152;65.012;25.464;2024-03-02T06:00:47;102083.80;;;2.78;71.77
82512;BME280;72152;65.012;25.464;2024-03-02T06:03:57;102096.38;;;2.80;71.70
82512;BME280;72152;65.012;25.464;2024-03-02T06:07:02;102096.83;;;2.85;71.67
82512;BME280;72152;65.012;25.464;2024-03-02T06:10:12;102098.95;;;2.86;71.62
82512;BME280;72152;65.012;25.464;2024-03-02T06:13:19;102086.64;;;2.83;71.62
82512;BME280;72152;65.012;25.464;2024-03-02T06:16:28;102089.56;;;2.82;71.60
82512;BME280;72152;65.012;25.464;2024-03-02T06:19:34;102088.41;;;2.83;71.58
82512;BME280;72152;65.012;25.464;2024-03-02T06:22:40;102084.42;;;2.84;71.55
82512;BME280;72152;65.012;25.464;2024-03-02T06:25:50;102090.52;;;2.84;71.48
82512;BME280;72152;65.012;25.464;2024-03-02T06:28:52;102098.08;;;2.86;71.33
82512;BME280;72152;65.012;25.464;2024-03-02T06:31:58;102116.08;;;2.91;71.34
82512;BME280;72152;65.012;25.464;2024-03-02T06:35:05;102127.66;;;2.97;71.38
82512;BME280;72152;65.012;25.464;2024-03-02T06:38:10;102129.84;;;2.98;71.04
82512;BME280;72152;65.012;25.464;2024-03-02T06:41:17;102135.42;;;2.99;70.98
82512;BME280;72152;65.012;25.464;2024-03-02T06:44:24;102147.39;;;3.02;71.00
82512;BME280;72152;65.012;25.464;2024-03-02T06:47:35;102144.21;;;3.04;70.91
82512;BME280;72152;65.012;25.464;2024-03-02T06:50:41;102142.41;;;3.10;70.86
82512;BME280;72152;65.012;25.464;2024-03-02T06:53:39;102156.47;;;3.17;70.72
82512;BME280;72152;65.012;25.464;2024-03-02T06:56:49;102151.65;;;3.21;70.60
82512;BME280;72152;65.012;25.464;2024-03-02T06:59:53;102152.04;;;3.26;70.58
82512;BME280;72152;65.012;25.464;2024-03-02T07:02:54;102154.41;;;3.28;70.28
82512;BME280;72152;65.012;25.464;2024-03-02T07:05:58;102153.14;;;3.30;70.49
82512;BME280;72152;65.012;25.464;2024-03-02T07:09:10;102156.68;;;3.32;70.26
82512;BME280;72152;65.012;25.464;2024-03-02T07:12:17;102144.19;;;3.29;70.22
82512;BME280;72152;65.012;25.464;2024-03-02T07:15:19;102135.52;;;3.26;70.17
82512;BME280;72152;65.012;25.464;2024-03-02T07:18:40;102140.63;;;3.23;70.32
82512;BME280;72152;65.012;25.464;2024-03-02T07:21:55;102151.14;;;3.25;70.16
82512;BME280;72152;65.012;25.464;2024-03-02T07:28:14;102177.83;;;3.34;70.26
82512;BME280;72152;65.012;25.464;2024-03-02T07:31:24;102183.98;;;3.38;70.12
82512;BME280;72152;65.012;25.464;2024-03-02T07:34:29;102193.19;;;3.42;70.27
82512;BME280;72152;65.012;25.464;2024-03-02T07:37:35;102196.88;;;3.46;69.97
82512;BME280;72152;65.012;25.464;2024-03-02T07:40:41;102191.39;;;3.48;70.04
82512;BME280;72152;65.012;25.464;2024-03-02T07:43:46;102190.30;;;3.50;69.75
82512;BME280;72152;65.012;25.464;2024-03-02T07:50:10;102187.02;;;3.47;69.86
82512;BME280;72152;65.012;25.464;2024-03-02T07:53:17;102187.42;;;3.48;70.00
82512;BME280;72152;65.012;25.464;2024-03-02T07:56:23;102188.05;;;3.50;70.00
82512;BME280;72152;65.012;25.464;2024-03-02T08:03:12;102189.29;;;3.57;69.70
82512;BME280;72152;65.012;25.464;2024-03-02T08:06:25;102193.58;;;3.57;69.73
82512;BME280;72152;65.012;25.464;2024-03-02T08:09:31;102189.70;;;3.56;69.69
82512;BME280;72152;65.012;25.464;2024-03-02T08:12:36;102190.55;;;3.52;69.69
82512;BME280;72152;65.012;25.464;2024-03-02T08:15:39;102195.80;;;3.52;69.71
82512;BME280;72152;65.012;25.464;2024-03-02T08:18:48;102183.45;;;3.53;69.61
82512;BME280;72152;65.012;25.464;2024-03-02T08:21:53;102185.06;;;3.57;69.54
82512;BME280;72152;65.012;25.464;2024-03-02T08:24:55;102186.30;;;3.61;69.64
82512;BME280;72152;65.012;25.464;2024-03-02T08:28:06;102185.05;;;3.64;69.32
82512;BME280;72152;65.012;25.464;2024-03-02T08:31:11;102185.81;;;3.72;69.54
82512;BME280;72152;65.012;25.464;2024-03-02T08:34:29;102179.64;;;3.82;69.30
82512;BME280;72152;65.012;25.464;2024-03-02T08:37:40;102178.41;;;3.89;69.26
82512;BME280;72152;65.012;25.464;2024-03-02T08:40:46;102175.20;;;3.94;69.08
82512;BME280;72152;65.012;25.464;2024-03-02T08:43:48;102174.33;;;3.98;69.06
82512;BME280;72152;65.012;25.464;2024-03-02T08:46:53;102169.98;;;3.99;68.67
82512;BME280;72152;65.012;25.464;2024-03-02T08:49:56;102168.11;;;3.99;68.79
82512;BME280;72152;65.012;25.464;2024-03-02T08:52:59;102168.27;;;4.02;68.81
82512;BME280;72152;65.012;25.464;2024-03-02T08:56:04;102163.02;;;4.06;68.78
82512;BME280;72152;65.012;25.464;2024-03-02T08:59:14;102164.23;;;4.13;68.83
82512;BME280;72152;65.012;25.464;2024-03-02T09:02:19;102159.92;;;4.18;68.55
82512;BME280;72152;65.012;25.464;2024-03-02T09:05:27;102153.83;;;4.18;68.54
82512;BME280;72152;65.012;25.464;2024-03-02T09:08:32;102155.80;;;4.19;68.68
82512;BME280;72152;65.012;25.464;2024-03-02T09:11:47;102160.27;;;4.22;68.41
82512;BME280;72152;65.012;25.464;2024-03-02T09:14:54;102162.70;;;4.25;68.32
82512;BME280;72152;65.012;25.464;2024-03-02T09:18:03;102171.09;;;4.26;68.59
82512;BME280;72152;65.012;25.464;2024-03-02T09:21:14;102179.90;;;4.24;68.35
82512;BME280;72152;65.012;25.464;2024-03-02T09:24:24;102183.58;;;4.17;68.38
82512;BME280;72152;65.012;25.464;2024-03-02T09:27:31;102183.48;;;4.12;68.42
82512;BME280;72152;65.012;25.464;2024-03-02T09:30:43;102185.06;;;4.12;68.58
82512;BME280;72152;65.012;25.464;2024-03-02T09:33:54;102186.17;;;4.09;68.61
82512;BME280;72152;65.012;25.464;2024-03-02T09:36:59;102191.35;;;4.12;68.69
82512;BME280;72152;65.012;25.464;2024-03-02T09:40:06;102202.92;;;4.21;68.66
82512;BME280;72152;65.012;25.464;2024-03-02T09:43:15;102208.98;;;4.24;68.68
82512;BME280;72152;65.012;25.464;2024-03-02T09:46:22;102220.05;;;4.22;68.66
82512;BME280;72152;65.012;25.464;2024-03-02T09:49:23;102218.44;;;4.21;68.96
82512;BME280;72152;65.012;25.464;2024-03-02T09:52:29;102220.23;;;4.18;68.80
82512;BME280;72152;65.012;25.464;2024-03-02T09:55:44;102222.11;;;4.10;68.71
82512;BME280;72152;65.012;25.464;2024-03-02T09:58:50;102229.62;;;4.07;68.78
82512;BME280;72152;65.012;25.464;2024-03-02T10:02:04;102233.27;;;4.07;68.98
82512;BME280;72152;65.012;25.464;2024-03-02T10:05:11;102228.08;;;4.07;69.02
82512;BME280;72152;65.012;25.464;2024-03-02T10:08:24;102231.20;;;4.08;68.91
82512;BME280;72152;65.012;25.464;2024-03-02T10:11:40;102229.50;;;4.08;69.12
82512;BME280;72152;65.012;25.464;2024-03-02T10:14:50;102225.55;;;4.09;69.16
82512;BME280;72152;65.012;25.464;2024-03-02T10:18:11;102222.11;;;4.07;68.98
82512;BME280;72152;65.012;25.464;2024-03-02T10:21:26;102225.75;;;4.03;69.06
82512;BME280;72152;65.012;25.464;2024-03-02T10:24:37;102228.81;;;4.05;69.16
82512;BME280;72152;65.012;25.464;2024-03-02T10:27:43;102234.33;;;4.08;69.31
82512;BME280;72152;65.012;25.464;2024-03-02T10:30:53;102233.05;;;4.09;69.26
82512;BME280;72152;65.012;25.464;2024-03-02T10:33:57;102229.11;;;4.11;69.32
82512;BME280;72152;65.012;25.464;2024-03-02T10:37:07;102230.79;;;4.17;69.18
82512;BME280;72152;65.012;25.464;2024-03-02T10:40:13;102234.58;;;4.20;69.07
82512;BME280;72152;65.012;25.464;2024-03-02T10:43:16;102236.99;;;4.20;69.19
82512;BME280;72152;65.012;25.464;2024-03-02T10:49:36;102248.84;;;4.09;69.11
82512;BME280;72152;65.012;25.464;2024-03-02T10:52:43;102248.18;;;4.06;69.29
82512;BME280;72152;65.012;25.464;2024-03-02T10:55:42;102245.40;;;4.02;69.37
82512;BME280;72152;65.012;25.464;2024-03-02T10:58:48;102250.75;;;4.05;69.30
82512;BME280;72152;65.012;25.464;2024-03-02T11:02:02;102251.95;;;4.08;69.42
82512;BME280;72152;65.012;25.464;2024-03-02T11:08:25;102252.42;;;4.07;69.38
82512;BME280;72152;65.012;25.464;2024-03-02T11:11:36;102256.38;;;4.10;69.25
82512;BME280;72152;65.012;25.464;2024-03-02T11:14:44;102264.40;;;4.09;69.30
82512;BME280;72152;65.012;25.464;2024-03-02T11:17:51;102264.85;;;4.08;69.41
82512;BME280;72152;65.012;25.464;2024-03-02T11:20:49;102263.39;;;4.07;69.42
82512;BME280;72152;65.012;25.464;2024-03-02T11:23:55;102264.33;;;4.04;69.48
82512;BME280;72152;65.012;25.464;2024-03-02T11:27:06;102264.98;;;4.07;69.49
82512;BME280;72152;65.012;25.464;2024-03-02T11:30:19;102266.75;;;4.08;69.67
82512;BME280;72152;65.012;25.464;2024-03-02T11:33:43;102270.84;;;4.06;69.47
82512;BME280;72152;65.012;25.464;2024-03-02T11:36:53;102269.59;;;4.05;69.52
82512;BME280;72152;65.012;25.464;2024-03-02T11:39:58;102263.88;;;4.06;69.63
82512;BME280;72152;65.012;25.464;2024-03-02T11:43:06;102256.73;;;4.10;69.60
82512;BME280;72152;65.012;25.464;2024-03-02T11:46:08;102259.99;;;4.20;69.54
82512;BME280;72152;65.012;25.464;2024-03-02T11:49:10;102258.11;;;4.24;69.63
82512;BME280;72152;65.012;25.464;2024-03-02T11:52:18;102266.85;;;4.28;69.42
82512;BME280;72152;65.012;25.464;2024-03-02T11:58:32;102269.10;;;4.43;69.18
82512;BME280;72152;65.012;25.464;2024-03-02T12:01:33;102268.14;;;4.56;69.18
82512;BME280;72152;65.012;25.464;2024-03-02T12:04:41;102268.50;;;4.63;69.00
82512;BME280;72152;65.012;25.464;2024-03-02T12:07:47;102267.02;;;4.66;68.88
82512;BME280;72152;65.012;25.464;2024-03-02T12:11:03;102266.20;;;4.67;69.03
82512;BME280;72152;65.012;25.464;2024-03-02T12:14:17;102274.83;;;4.65;68.84
82512;BME280;72152;65.012;25.464;2024-03-02T12:17:19;102275.31;;;4.60;68.90
82512;BME280;72152;65.012;25.464;2024-03-02T12:20:18;102279.57;;;4.62;68.91
82512;BME280;72152;65.012;25.464;2024-03-02T12:23:20;102290.05;;;4.66;68.88
82512;BME280;72152;65.012;25.464;2024-03-02T12:26:25;102291.91;;;4.65;69.06
82512;BME280;72152;65.012;25.464;2024-03-02T12:29:29;102287.58;;;4.65;69.02
82512;BME280;72152;65.012;25.464;2024-03-02T12:32:42;102281.06;;;4.64;69.10
82512;BME280;72152;65.012;25.464;2024-03-02T12:35:49;102286.17;;;4.58;69.23
82512;BME280;72152;65.012;25.464;2024-03-02T12:38:59;102289.63;;;4.53;69.30
82512;BME280;72152;65.012;25.464;2024-03-02T12:42:02;102291.88;;;4.45;69.33
82512;BME280;72152;65.012;25.464;2024-03-02T12:45:15;102288.20;;;4.41;69.47
82512;BME280;72152;65.012;25.464;2024-03-02T12:48:24;102294.17;;;4.39;69.81
82512;BME280;72152;65.012;25.464;2024-03-02T12:51:26;102290.98;;;4.34;69.96
82512;BME280;72152;65.012;25.464;2024-03-02T12:54:32;102295.15;;;4.29;70.20
82512;BME280;72152;65.012;25.464;2024-03-02T12:57:40;102281.05;;;4.30;70.25
82512;BME280;72152;65.012;25.464;2024-03-02T13:00:55;102282.88;;;4.28;70.54
82512;BME280;72152;65.012;25.464;2024-03-02T13:04:12;102276.80;;;4.29;70.82
82512;BME280;72152;65.012;25.464;2024-03-02T13:07:23;102284.84;;;4.26;70.83
82512;BME280;72152;65.012;25.464;2024-03-02T13:10:31;102285.81;;;4.21;70.87
82512;BME280;72152;65.012;25.464;2024-03-02T13:13:35;102298.03;;;4.21;70.90
82512;BME280;72152;65.012;25.464;2024-03-02T13:16:57;102296.38;;;4.23;70.90
82512;BME280;72152;65.012;25.464;2024-03-02T13:20:04;102291.18;;;4.27;70.79
82512;BME280;72152;65.012;25.464;2024-03-02T13:23:05;102296.71;;;4.29;71.00
82512;BME280;72152;65.012;25.464;2024-03-02T13:26:07;102305.36;;;4.28;71.13
82512;BME280;72152;65.012;25.464;2024-03-02T13:29:13;102302.73;;;4.21;71.18
82512;BME280;72152;65.012;25.464;2024-03-02T13:32:19;102306.98;;;4.15;71.53
82512;BME280;72152;65.012;25.464;2024-03-02T13:35:24;102304.68;;;4.14;71.45
82512;BME280;72152;65.012;25.464;2024-03-02T13:38:34;102297.55;;;4.11;71.75
82512;BME280;72152;65.012;25.464;2024-03-02T13:41:42;102302.60;;;4.11;71.72
82512;BME280;72152;65.012;25.464;2024-03-02T13:44:53;102300.69;;;4.11;72.19
82512;BME280;72152;65.012;25.464;2024-03-02T13:47:55;102309.05;;;4.11;72.15
82512;BME280;72152;65.012;25.464;2024-03-02T13:51:02;102315.45;;;4.14;72.45
82512;BME280;72152;65.012;25.464;2024-03-02T13:54:12;102323.59;;;4.16;72.30
82512;BME280;72152;65.012;25.464;2024-03-02T13:57:15;102326.42;;;4.17;72.38
82512;BME280;72152;65.012;25.464;2024-03-02T14:00:33;102336.55;;;4.18;72.28
82512;BME280;72152;65.012;25.464;2024-03-02T14:03:38;102345.70;;;4.16;72.47
82512;BME280;72152;65.012;25.464;2024-03-02T14:06:43;102345.51;;;4.12;72.50
82512;BME280;72152;65.012;25.464;2024-03-02T14:09:53;102335.80;;;4.09;72.67
82512;BME280;72152;65.012;25.464;2024-03-02T14:12:54;102331.62;;;4.06;72.81
82512;BME280;72152;65.012;25.464;2024-03-02T14:19:14;102335.09;;;4.02;72.94
82512;BME280;72152;65.012;25.464;2024-03-02T14:22:19;102329.70;;;3.99;73.09
82512;BME280;72152;65.012;25.464;2024-03-02T14:25:23;102321.63;;;3.94;73.36
82512;BME280;72152;65.012;25.464;2024-03-02T14:28:31;102320.57;;;3.90;73.51
82512;BME280;72152;65.012;25.464;2024-03-02T14:31:37;102328.02;;;3.86;73.55
82512;BME280;72152;65.012;25.464;2024-03-02T14:34:43;102338.80;;;3.86;73.72
82512;BME280;72152;65.012;25.464;2024-03-02T14:37:47;102335.09;;;3.85;73.39
82512;BME280;72152;65.012;25.464;2024-03-02T14:40:53;102327.90;;;3.83;73.74
82512;BME280;72152;65.012;25.464;2024-03-02T14:43:58;102325.94;;;3.79;73.82
82512;BME280;72152;65.012;25.464;2024-03-02T14:47:06;102331.10;;;3.78;74.00
82512;BME280;72152;65.012;25.464;2024-03-02T14:50:08;102334.64;;;3.79;73.81
82512;BME280;72152;65.012;25.464;2024-03-02T14:53:11;102338.07;;;3.81;74.00
82512;BME280;72152;65.012;25.464;2024-03-02T14:56:23;102334.16;;;3.83;73.99
82512;BME280;72152;65.012;25.464;2024-03-02T14:59:38;102316.21;;;3.83;73.80
82512;BME280;72152;65.012;25.464;2024-03-02T15:02:48;102312.21;;;3.76;74.08
82512;BME280;72152;65.012;25.464;2024-03-02T15:05:58;102317.69;;;3.74;74.34
82512;BME280;72152;65.012;25.464;2024-03-02T15:09:05;102318.17;;;3.74;74.40
82512;BME280;72152;65.012;25.464;2024-03-02T15:12:08;102305.82;;;3.70;74.33
82512;BME280;72152;65.012;25.464;2024-03-02T15:15:11;102307.92;;;3.64;74.47
82512;BME280;72152;65.012;25.464;2024-03-02T15:18:21;102310.32;;;3.63;74.54
82512;BME280;72152;65.012;25.464;2024-03-02T15:21:31;102309.83;;;3.63;74.65
82512;BME280;72152;65.012;25.464;2024-03-02T15:24:37;102309.50;;;3.60;74.65
82512;BME280;72152;65.012;25.464;2024-03-02T15:27:43;102316.77;;;3.60;74.74
82512;BME280;72152;65.012;25.464;2024-03-02T15:30:58;102319.92;;;3.60;74.80
82512;BME280;72152;65.012;25.464;2024-03-02T15:34:02;102322.06;;;3.57;74.89
82512;BME280;72152;65.012;25.464;2024-03-02T15:37:09;102327.58;;;3.53;74.91
82512;BME280;72152;65.012;25.464;2024-03-02T15:40:11;102329.34;;;3.50;75.00
82512;BME280;72152;65.012;25.464;2024-03-02T15:43:12;102326.49;;;3.46;75.10
82512;BME280;72152;65.012;25.464;2024-03-02T15:46:18;102324.51;;;3.44;75.08
82512;BME280;72152;65.012;25.464;2024-03-02T15:49:20;102327.08;;;3.44;75.35
82512;BME280;72152;65.012;25.464;2024-03-02T15:52:27;102324.95;;;3.43;75.52
82512;BME280;72152;65.012;25.464;2024-03-02T15:55:36;102325.14;;;3.40;75.43
82512;BME280;72152;65.012;25.464;2024-03-02T15:58:41;102324.36;;;3.35;75.42
82512;BME280;72152;65.012;25.464;2024-03-02T16:01:47;102327.69;;;3.35;75.57
82512;BME280;72152;65.012;25.464;2024-03-02T16:04:58;102332.30;;;3.37;75.61
82512;BME280;72152;65.012;25.464;2024-03-02T16:11:14;102342.02;;;3.40;75.73
82512;BME280;72152;65.012;25.464;2024-03-02T16:14:20;102347.42;;;3.43;75.61
82512;BME280;72152;65.012;25.464;2024-03-02T16:17:25;102342.52;;;3.46;75.72
82512;BME280;72152;65.012;25.464;2024-03-02T16:20:32;102339.64;;;3.47;75.62
82512;BME280;72152;65.012;25.464;2024-03-02T16:23:38;102334.55;;;3.47;75.53
82512;BME280;72152;65.012;25.464;2024-03-02T16:26:42;102330.04;;;3.47;75.65
82512;BME280;72152;65.012;25.464;2024-03-02T16:29:45;102331.95;;;3.44;75.66
82512;BME280;72152;65.012;25.464;2024-03-02T16:32:48;102337.42;;;3.41;75.65
82512;BME280;72152;65.012;25.464;2024-03-02T16:35:59;102342.92;;;3.41;75.76
82512;BME280;72152;65.012;25.464;2024-03-02T16:39:01;102339.06;;;3.43;75.65
82512;BME280;72152;65.012;25.464;2024-03-02T16:42:08;102335.84;;;3.45;75.80
82512;BME280;72152;65.012;25.464;2024-03-02T16:45:15;102339.28;;;3.47;75.93